Canton, Massachusetts
Current Conditions -  °F | °C
As of 3:10 AM on Friday 24 Oct 2014 (Local Time) from KOWD Reporting Station
Light Rain Light Rain  
Wind Chill: 46°   Ceiling: 1400
Heat Index: 49°   Visibility: 4mi
Dew Point: 48°   Wind: 7mph
Humidity: 97%   Direction: 340°NNW
Pressure: 29.65"   Gusts: NA
Location:  42.16°N, 71.14°W
Report Text: KOWD 240710Z AUTO 34006KT 4SM -RA BR SCT009 OVC014 09/09 A2965 RMK AO2 P0002 T00940089
Loading
Personal Weather Stations






























Interactive Weather Map
Tropical Storm Tracking
New forecast layout! Learn more

10-Day Weather Forecast

Advertisements
Track Severe Weather on mobile